sensor_id;sensor_type;location;lat;lon;timestamp;P1;durP1;ratioP1;P2;durP2;ratioP2
71975;SDS011;68326;52.124;5.424;2023-04-16T00:01:15;9.07;;;1.48;;
71975;SDS011;68326;52.124;5.424;2023-04-16T00:03:42;4.67;;;1.10;;
71975;SDS011;68326;52.124;5.424;2023-04-16T00:06:09;6.03;;;1.60;;
71975;SDS011;68326;52.124;5.424;2023-04-16T00:08:37;5.13;;;1.00;;
71975;SDS011;68326;52.124;5.424;2023-04-16T00:11:04;6.57;;;1.20;;
71975;SDS011;68326;52.124;5.424;2023-04-16T00:13:30;3.60;;;1.05;;
71975;SDS011;68326;52.124;5.424;2023-04-16T00:15:57;4.63;;;0.97;;
71975;SDS011;68326;52.124;5.424;2023-04-16T00:18:24;4.43;;;0.70;;
71975;SDS011;68326;52.124;5.424;2023-04-16T00:20:51;7.18;;;0.80;;
71975;SDS011;68326;52.124;5.424;2023-04-16T00:23:18;2.25;;;0.88;;
71975;SDS011;68326;52.124;5.424;2023-04-16T00:25:45;6.50;;;1.25;;
71975;SDS011;68326;52.124;5.424;2023-04-16T00:28:11;5.73;;;1.30;;
71975;SDS011;68326;52.124;5.424;2023-04-16T00:30:38;6.40;;;1.05;;
71975;SDS011;68326;52.124;5.424;2023-04-16T00:33:05;4.90;;;1.58;;
71975;SDS011;68326;52.124;5.424;2023-04-16T00:35:31;2.92;;;0.90;;
71975;SDS011;68326;52.124;5.424;2023-04-16T00:37:58;5.55;;;0.90;;
71975;SDS011;68326;52.124;5.424;2023-04-16T00:40:27;4.07;;;0.97;;
71975;SDS011;68326;52.124;5.424;2023-04-16T00:42:54;5.43;;;1.45;;
71975;SDS011;68326;52.124;5.424;2023-04-16T00:45:21;3.85;;;0.80;;
71975;SDS011;68326;52.124;5.424;2023-04-16T00:47:47;5.13;;;0.95;;
71975;SDS011;68326;52.124;5.424;2023-04-16T00:50:14;3.28;;;0.80;;
71975;SDS011;68326;52.124;5.424;2023-04-16T00:52:42;3.97;;;0.97;;
71975;SDS011;68326;52.124;5.424;2023-04-16T00:55:09;6.13;;;1.70;;
71975;SDS011;68326;52.124;5.424;2023-04-16T00:57:38;4.60;;;1.00;;
71975;SDS011;68326;52.124;5.424;2023-04-16T01:00:05;4.72;;;1.40;;
71975;SDS011;68326;52.124;5.424;2023-04-16T01:02:32;5.05;;;1.40;;
71975;SDS011;68326;52.124;5.424;2023-04-16T01:04:59;5.80;;;1.40;;
71975;SDS011;68326;52.124;5.424;2023-04-16T01:07:27;7.85;;;1.70;;
71975;SDS011;68326;52.124;5.424;2023-04-16T01:09:53;7.78;;;1.60;;
71975;SDS011;68326;52.124;5.424;2023-04-16T01:12:20;8.50;;;1.40;;
71975;SDS011;68326;52.124;5.424;2023-04-16T01:14:46;7.75;;;1.70;;
71975;SDS011;68326;52.124;5.424;2023-04-16T01:17:13;7.13;;;1.73;;
71975;SDS011;68326;52.124;5.424;2023-04-16T01:19:40;6.68;;;1.77;;
71975;SDS011;68326;52.124;5.424;2023-04-16T01:22:07;6.53;;;1.77;;
71975;SDS011;68326;52.124;5.424;2023-04-16T01:24:33;7.78;;;1.42;;
71975;SDS011;68326;52.124;5.424;2023-04-16T01:27:00;7.60;;;1.75;;
71975;SDS011;68326;52.124;5.424;2023-04-16T01:29:26;7.50;;;1.90;;
71975;SDS011;68326;52.124;5.424;2023-04-16T01:31:53;6.45;;;1.83;;
71975;SDS011;68326;52.124;5.424;2023-04-16T01:34:19;5.47;;;1.73;;
71975;SDS011;68326;52.124;5.424;2023-04-16T01:36:46;8.00;;;1.80;;
71975;SDS011;68326;52.124;5.424;2023-04-16T01:39:12;6.43;;;2.25;;
71975;SDS011;68326;52.124;5.424;2023-04-16T01:41:40;5.53;;;2.33;;
71975;SDS011;68326;52.124;5.424;2023-04-16T01:44:07;9.20;;;2.10;;
71975;SDS011;68326;52.124;5.424;2023-04-16T01:46:34;8.40;;;2.25;;
71975;SDS011;68326;52.124;5.424;2023-04-16T01:49:01;7.65;;;2.50;;
71975;SDS011;68326;52.124;5.424;2023-04-16T01:51:27;9.40;;;2.22;;
71975;SDS011;68326;52.124;5.424;2023-04-16T01:53:54;8.97;;;2.20;;
71975;SDS011;68326;52.124;5.424;2023-04-16T01:56:21;7.00;;;1.80;;
71975;SDS011;68326;52.124;5.424;2023-04-16T01:58:47;5.93;;;2.30;;
71975;SDS011;68326;52.124;5.424;2023-04-16T02:01:14;7.15;;;2.10;;
71975;SDS011;68326;52.124;5.424;2023-04-16T02:03:41;7.38;;;2.20;;
71975;SDS011;68326;52.124;5.424;2023-04-16T02:06:08;14.33;;;3.10;;
71975;SDS011;68326;52.124;5.424;2023-04-16T02:08:34;14.50;;;3.35;;
71975;SDS011;68326;52.124;5.424;2023-04-16T02:11:01;7.40;;;2.95;;
71975;SDS011;68326;52.124;5.424;2023-04-16T02:13:27;10.98;;;3.00;;
71975;SDS011;68326;52.124;5.424;2023-04-16T02:15:54;8.70;;;3.00;;
71975;SDS011;68326;52.124;5.424;2023-04-16T02:18:20;10.83;;;3.43;;
71975;SDS011;68326;52.124;5.424;2023-04-16T02:20:47;11.00;;;2.67;;
71975;SDS011;68326;52.124;5.424;2023-04-16T02:23:14;11.13;;;3.58;;
71975;SDS011;68326;52.124;5.424;2023-04-16T02:25:41;13.02;;;3.78;;
71975;SDS011;68326;52.124;5.424;2023-04-16T02:28:13;7.57;;;3.22;;
71975;SDS011;68326;52.124;5.424;2023-04-16T02:30:41;10.93;;;3.20;;
71975;SDS011;68326;52.124;5.424;2023-04-16T02:33:08;13.10;;;3.53;;
71975;SDS011;68326;52.124;5.424;2023-04-16T02:35:37;7.43;;;3.25;;
71975;SDS011;68326;52.124;5.424;2023-04-16T02:38:04;9.57;;;3.38;;
71975;SDS011;68326;52.124;5.424;2023-04-16T02:40:31;9.98;;;3.15;;
71975;SDS011;68326;52.124;5.424;2023-04-16T02:42:57;11.80;;;3.87;;
71975;SDS011;68326;52.124;5.424;2023-04-16T02:45:24;10.85;;;3.20;;
71975;SDS011;68326;52.124;5.424;2023-04-16T02:47:50;11.98;;;3.72;;
71975;SDS011;68326;52.124;5.424;2023-04-16T02:50:17;13.23;;;3.92;;
71975;SDS011;68326;52.124;5.424;2023-04-16T02:52:43;10.55;;;4.03;;
71975;SDS011;68326;52.124;5.424;2023-04-16T02:55:10;12.13;;;3.90;;
71975;SDS011;68326;52.124;5.424;2023-04-16T02:57:37;9.63;;;3.85;;
71975;SDS011;68326;52.124;5.424;2023-04-16T03:00:03;14.40;;;3.95;;
71975;SDS011;68326;52.124;5.424;2023-04-16T03:02:30;13.23;;;4.13;;
71975;SDS011;68326;52.124;5.424;2023-04-16T03:04:57;16.27;;;4.00;;
71975;SDS011;68326;52.124;5.424;2023-04-16T03:07:23;10.60;;;4.03;;
71975;SDS011;68326;52.124;5.424;2023-04-16T03:09:50;10.70;;;4.15;;
71975;SDS011;68326;52.124;5.424;2023-04-16T03:12:16;15.45;;;4.53;;
71975;SDS011;68326;52.124;5.424;2023-04-16T03:14:43;13.35;;;4.60;;
71975;SDS011;68326;52.124;5.424;2023-04-16T03:17:09;11.77;;;3.90;;
71975;SDS011;68326;52.124;5.424;2023-04-16T03:19:35;17.67;;;4.67;;
71975;SDS011;68326;52.124;5.424;2023-04-16T03:22:02;12.23;;;4.40;;
71975;SDS011;68326;52.124;5.424;2023-04-16T03:24:28;15.00;;;5.07;;
71975;SDS011;68326;52.124;5.424;2023-04-16T03:26:56;11.18;;;4.63;;
71975;SDS011;68326;52.124;5.424;2023-04-16T03:29:23;12.10;;;4.60;;
71975;SDS011;68326;52.124;5.424;2023-04-16T03:31:49;10.87;;;4.53;;
71975;SDS011;68326;52.124;5.424;2023-04-16T03:34:16;12.52;;;5.07;;
71975;SDS011;68326;52.124;5.424;2023-04-16T03:36:42;16.13;;;4.63;;
71975;SDS011;68326;52.124;5.424;2023-04-16T03:39:09;14.63;;;4.57;;
71975;SDS011;68326;52.124;5.424;2023-04-16T03:41:36;12.82;;;4.45;;
71975;SDS011;68326;52.124;5.424;2023-04-16T03:44:02;16.90;;;4.20;;
71975;SDS011;68326;52.124;5.424;2023-04-16T03:46:28;13.55;;;4.32;;
71975;SDS011;68326;52.124;5.424;2023-04-16T03:48:55;13.57;;;4.25;;
71975;SDS011;68326;52.124;5.424;2023-04-16T03:51:22;14.93;;;4.20;;
71975;SDS011;68326;52.124;5.424;2023-04-16T03:53:48;10.75;;;4.10;;
71975;SDS011;68326;52.124;5.424;2023-04-16T03:56:14;11.23;;;4.10;;
71975;SDS011;68326;52.124;5.424;2023-04-16T03:58:41;12.77;;;3.90;;
71975;SDS011;68326;52.124;5.424;2023-04-16T04:01:07;14.35;;;4.78;;
71975;SDS011;68326;52.124;5.424;2023-04-16T04:03:34;13.50;;;3.92;;
71975;SDS011;68326;52.124;5.424;2023-04-16T04:06:00;12.80;;;4.25;;
71975;SDS011;68326;52.124;5.424;2023-04-16T04:08:32;11.30;;;4.47;;
71975;SDS011;68326;52.124;5.424;2023-04-16T04:10:58;14.43;;;4.55;;
71975;SDS011;68326;52.124;5.424;2023-04-16T04:13:25;13.43;;;4.60;;
71975;SDS011;68326;52.124;5.424;2023-04-16T04:15:51;13.43;;;4.60;;
71975;SDS011;68326;52.124;5.424;2023-04-16T04:18:18;13.48;;;4.38;;
71975;SDS011;68326;52.124;5.424;2023-04-16T04:20:44;12.73;;;4.80;;
71975;SDS011;68326;52.124;5.424;2023-04-16T04:23:10;12.88;;;4.60;;
71975;SDS011;68326;52.124;5.424;2023-04-16T04:25:37;12.32;;;4.72;;
71975;SDS011;68326;52.124;5.424;2023-04-16T04:28:03;14.20;;;4.30;;
71975;SDS011;68326;52.124;5.424;2023-04-16T04:30:30;13.85;;;5.40;;
71975;SDS011;68326;52.124;5.424;2023-04-16T04:32:56;17.47;;;5.03;;
71975;SDS011;68326;52.124;5.424;2023-04-16T04:35:23;11.68;;;4.30;;
71975;SDS011;68326;52.124;5.424;2023-04-16T04:37:49;16.25;;;4.15;;
71975;SDS011;68326;52.124;5.424;2023-04-16T04:40:16;15.20;;;5.03;;
71975;SDS011;68326;52.124;5.424;2023-04-16T04:42:42;12.93;;;4.63;;
71975;SDS011;68326;52.124;5.424;2023-04-16T04:45:09;12.53;;;4.07;;
71975;SDS011;68326;52.124;5.424;2023-04-16T04:47:36;12.38;;;4.80;;
71975;SDS011;68326;52.124;5.424;2023-04-16T04:50:03;13.32;;;4.40;;
71975;SDS011;68326;52.124;5.424;2023-04-16T04:52:29;12.63;;;4.85;;
71975;SDS011;68326;52.124;5.424;2023-04-16T04:54:56;11.63;;;4.95;;
71975;SDS011;68326;52.124;5.424;2023-04-16T04:57:22;11.80;;;4.73;;
71975;SDS011;68326;52.124;5.424;2023-04-16T04:59:49;14.93;;;4.43;;
71975;SDS011;68326;52.124;5.424;2023-04-16T05:02:15;16.08;;;4.25;;
71975;SDS011;68326;52.124;5.424;2023-04-16T05:04:42;13.98;;;4.35;;
71975;SDS011;68326;52.124;5.424;2023-04-16T05:07:08;14.00;;;4.85;;
71975;SDS011;68326;52.124;5.424;2023-04-16T05:09:35;12.20;;;3.93;;
71975;SDS011;68326;52.124;5.424;2023-04-16T05:12:01;14.88;;;4.55;;
71975;SDS011;68326;52.124;5.424;2023-04-16T05:14:29;16.33;;;4.47;;
71975;SDS011;68326;52.124;5.424;2023-04-16T05:16:55;12.52;;;5.55;;
71975;SDS011;68326;52.124;5.424;2023-04-16T05:19:21;14.20;;;4.82;;
71975;SDS011;68326;52.124;5.424;2023-04-16T05:21:48;13.33;;;4.70;;
71975;SDS011;68326;52.124;5.424;2023-04-16T05:24:14;10.77;;;4.75;;
71975;SDS011;68326;52.124;5.424;2023-04-16T05:26:41;17.33;;;4.40;;
71975;SDS011;68326;52.124;5.424;2023-04-16T05:29:07;13.88;;;4.78;;
71975;SDS011;68326;52.124;5.424;2023-04-16T05:31:34;12.63;;;5.40;;
71975;SDS011;68326;52.124;5.424;2023-04-16T05:34:01;13.70;;;4.30;;
71975;SDS011;68326;52.124;5.424;2023-04-16T05:36:27;17.75;;;4.97;;
71975;SDS011;68326;52.124;5.424;2023-04-16T05:38:53;18.73;;;4.90;;
71975;SDS011;68326;52.124;5.424;2023-04-16T05:41:20;13.20;;;4.88;;
71975;SDS011;68326;52.124;5.424;2023-04-16T05:43:46;12.85;;;4.93;;
71975;SDS011;68326;52.124;5.424;2023-04-16T05:46:13;15.60;;;4.63;;
71975;SDS011;68326;52.124;5.424;2023-04-16T05:48:39;15.65;;;5.28;;
71975;SDS011;68326;52.124;5.424;2023-04-16T05:51:05;15.45;;;5.13;;
71975;SDS011;68326;52.124;5.424;2023-04-16T05:53:32;12.45;;;4.57;;
71975;SDS011;68326;52.124;5.424;2023-04-16T05:55:58;19.55;;;5.97;;
71975;SDS011;68326;52.124;5.424;2023-04-16T05:58:25;11.97;;;4.43;;
71975;SDS011;68326;52.124;5.424;2023-04-16T06:00:51;14.20;;;5.00;;
71975;SDS011;68326;52.124;5.424;2023-04-16T06:03:18;17.98;;;4.60;;
71975;SDS011;68326;52.124;5.424;2023-04-16T06:05:44;11.05;;;4.47;;
71975;SDS011;68326;52.124;5.424;2023-04-16T06:08:11;11.75;;;4.43;;
71975;SDS011;68326;52.124;5.424;2023-04-16T06:10:37;11.10;;;4.57;;
71975;SDS011;68326;52.124;5.424;2023-04-16T06:13:04;14.07;;;4.60;;
71975;SDS011;68326;52.124;5.424;2023-04-16T06:15:30;13.70;;;4.88;;
71975;SDS011;68326;52.124;5.424;2023-04-16T06:17:57;21.35;;;5.35;;
71975;SDS011;68326;52.124;5.424;2023-04-16T06:20:26;17.20;;;4.78;;
71975;SDS011;68326;52.124;5.424;2023-04-16T06:22:52;12.80;;;4.90;;
71975;SDS011;68326;52.124;5.424;2023-04-16T06:25:18;11.52;;;4.95;;
71975;SDS011;68326;52.124;5.424;2023-04-16T06:27:45;16.05;;;5.55;;
71975;SDS011;68326;52.124;5.424;2023-04-16T06:30:12;14.82;;;5.55;;
71975;SDS011;68326;52.124;5.424;2023-04-16T06:32:39;12.65;;;5.70;;
71975;SDS011;68326;52.124;5.424;2023-04-16T06:35:07;16.50;;;5.80;;
71975;SDS011;68326;52.124;5.424;2023-04-16T06:37:34;17.90;;;6.30;;
71975;SDS011;68326;52.124;5.424;2023-04-16T06:40:00;13.85;;;5.40;;
71975;SDS011;68326;52.124;5.424;2023-04-16T06:42:27;14.57;;;5.50;;
71975;SDS011;68326;52.124;5.424;2023-04-16T06:44:53;16.88;;;5.85;;
71975;SDS011;68326;52.124;5.424;2023-04-16T06:47:20;17.47;;;6.73;;
71975;SDS011;68326;52.124;5.424;2023-04-16T06:49:46;18.08;;;5.47;;
71975;SDS011;68326;52.124;5.424;2023-04-16T06:52:12;15.55;;;6.45;;
71975;SDS011;68326;52.124;5.424;2023-04-16T06:54:39;17.23;;;5.63;;
71975;SDS011;68326;52.124;5.424;2023-04-16T06:57:05;15.75;;;6.07;;
71975;SDS011;68326;52.124;5.424;2023-04-16T06:59:32;15.57;;;6.17;;
71975;SDS011;68326;52.124;5.424;2023-04-16T07:01:58;16.23;;;5.60;;
71975;SDS011;68326;52.124;5.424;2023-04-16T07:04:25;15.82;;;5.72;;
71975;SDS011;68326;52.124;5.424;2023-04-16T07:06:51;16.17;;;5.82;;
71975;SDS011;68326;52.124;5.424;2023-04-16T07:09:18;15.05;;;6.13;;
71975;SDS011;68326;52.124;5.424;2023-04-16T07:11:44;20.43;;;6.97;;
71975;SDS011;68326;52.124;5.424;2023-04-16T07:14:12;20.88;;;6.60;;
71975;SDS011;68326;52.124;5.424;2023-04-16T07:16:38;18.70;;;6.22;;
71975;SDS011;68326;52.124;5.424;2023-04-16T07:19:05;18.95;;;6.93;;
71975;SDS011;68326;52.124;5.424;2023-04-16T07:21:32;16.08;;;6.72;;
71975;SDS011;68326;52.124;5.424;2023-04-16T07:23:58;18.23;;;6.60;;
71975;SDS011;68326;52.124;5.424;2023-04-16T07:26:25;17.50;;;6.65;;
71975;SDS011;68326;52.124;5.424;2023-04-16T07:28:52;18.83;;;7.43;;
71975;SDS011;68326;52.124;5.424;2023-04-16T07:31:18;17.52;;;6.57;;
71975;SDS011;68326;52.124;5.424;2023-04-16T07:33:45;17.52;;;7.13;;
71975;SDS011;68326;52.124;5.424;2023-04-16T07:36:11;18.60;;;7.13;;
71975;SDS011;68326;52.124;5.424;2023-04-16T07:38:38;15.45;;;6.25;;
71975;SDS011;68326;52.124;5.424;2023-04-16T07:41:05;14.35;;;5.78;;
71975;SDS011;68326;52.124;5.424;2023-04-16T07:43:31;16.38;;;6.15;;
71975;SDS011;68326;52.124;5.424;2023-04-16T07:45:58;14.68;;;6.20;;
71975;SDS011;68326;52.124;5.424;2023-04-16T07:48:24;16.10;;;6.10;;
71975;SDS011;68326;52.124;5.424;2023-04-16T07:50:51;16.58;;;5.88;;
71975;SDS011;68326;52.124;5.424;2023-04-16T07:53:17;12.65;;;5.53;;
71975;SDS011;68326;52.124;5.424;2023-04-16T07:55:44;15.05;;;5.65;;
71975;SDS011;68326;52.124;5.424;2023-04-16T07:58:10;16.83;;;5.93;;
71975;SDS011;68326;52.124;5.424;2023-04-16T08:00:37;14.77;;;6.20;;
71975;SDS011;68326;52.124;5.424;2023-04-16T08:03:04;11.07;;;5.05;;
71975;SDS011;68326;52.124;5.424;2023-04-16T08:05:31;11.30;;;4.82;;
71975;SDS011;68326;52.124;5.424;2023-04-16T08:07:57;13.10;;;5.75;;
71975;SDS011;68326;52.124;5.424;2023-04-16T08:10:24;12.00;;;5.50;;
71975;SDS011;68326;52.124;5.424;2023-04-16T08:12:50;13.10;;;5.03;;
71975;SDS011;68326;52.124;5.424;2023-04-16T08:15:17;9.50;;;4.22;;
71975;SDS011;68326;52.124;5.424;2023-04-16T08:17:43;10.43;;;4.85;;
71975;SDS011;68326;52.124;5.424;2023-04-16T08:20:10;10.27;;;4.80;;
71975;SDS011;68326;52.124;5.424;2023-04-16T08:22:42;10.15;;;4.55;;
71975;SDS011;68326;52.124;5.424;2023-04-16T08:25:08;12.17;;;4.13;;
71975;SDS011;68326;52.124;5.424;2023-04-16T08:27:35;9.80;;;4.00;;
71975;SDS011;68326;52.124;5.424;2023-04-16T08:30:02;7.72;;;3.85;;
71975;SDS011;68326;52.124;5.424;2023-04-16T08:32:28;7.60;;;4.15;;
71975;SDS011;68326;52.124;5.424;2023-04-16T08:34:55;9.43;;;4.38;;
71975;SDS011;68326;52.124;5.424;2023-04-16T08:37:22;10.47;;;4.10;;
71975;SDS011;68326;52.124;5.424;2023-04-16T08:39:50;8.13;;;3.60;;
71975;SDS011;68326;52.124;5.424;2023-04-16T08:42:27;8.32;;;4.07;;
71975;SDS011;68326;52.124;5.424;2023-04-16T08:45:02;10.80;;;3.75;;
71975;SDS011;68326;52.124;5.424;2023-04-16T08:47:33;8.70;;;3.78;;
71975;SDS011;68326;52.124;5.424;2023-04-16T08:50:02;9.73;;;3.73;;
71975;SDS011;68326;52.124;5.424;2023-04-16T08:52:30;8.23;;;4.20;;
71975;SDS011;68326;52.124;5.424;2023-04-16T08:55:06;8.55;;;3.20;;
71975;SDS011;68326;52.124;5.424;2023-04-16T08:57:38;8.60;;;2.97;;
71975;SDS011;68326;52.124;5.424;2023-04-16T09:00:08;8.60;;;3.45;;
71975;SDS011;68326;52.124;5.424;2023-04-16T09:02:37;6.43;;;2.87;;
71975;SDS011;68326;52.124;5.424;2023-04-16T09:05:04;5.78;;;2.90;;
71975;SDS011;68326;52.124;5.424;2023-04-16T09:07:33;5.60;;;3.03;;
71975;SDS011;68326;52.124;5.424;2023-04-16T09:10:00;6.70;;;3.20;;
71975;SDS011;68326;52.124;5.424;2023-04-16T09:12:29;7.90;;;3.38;;
71975;SDS011;68326;52.124;5.424;2023-04-16T09:14:56;6.43;;;3.27;;
71975;SDS011;68326;52.124;5.424;2023-04-16T09:17:26;7.35;;;3.33;;
71975;SDS011;68326;52.124;5.424;2023-04-16T09:19:53;7.55;;;3.30;;
71975;SDS011;68326;52.124;5.424;2023-04-16T09:22:20;6.47;;;4.18;;
71975;SDS011;68326;52.124;5.424;2023-04-16T09:24:46;7.82;;;4.00;;
71975;SDS011;68326;52.124;5.424;2023-04-16T09:27:12;6.30;;;3.33;;
71975;SDS011;68326;52.124;5.424;2023-04-16T09:29:39;7.30;;;3.50;;
71975;SDS011;68326;52.124;5.424;2023-04-16T09:32:07;6.68;;;3.22;;
71975;SDS011;68326;52.124;5.424;2023-04-16T09:34:46;5.45;;;3.53;;
71975;SDS011;68326;52.124;5.424;2023-04-16T09:37:26;8.23;;;3.67;;
71975;SDS011;68326;52.124;5.424;2023-04-16T09:42:24;8.55;;;3.00;;
71975;SDS011;68326;52.124;5.424;2023-04-16T09:44:52;7.40;;;3.35;;
71975;SDS011;68326;52.124;5.424;2023-04-16T09:47:22;6.60;;;3.30;;
71975;SDS011;68326;52.124;5.424;2023-04-16T09:50:03;9.32;;;3.53;;
71975;SDS011;68326;52.124;5.424;2023-04-16T09:52:30;7.17;;;3.30;;
71975;SDS011;68326;52.124;5.424;2023-04-16T09:54:56;6.90;;;3.00;;
71975;SDS011;68326;52.124;5.424;2023-04-16T09:57:23;8.32;;;3.70;;
71975;SDS011;68326;52.124;5.424;2023-04-16T09:59:53;9.05;;;4.10;;
71975;SDS011;68326;52.124;5.424;2023-04-16T10:02:26;6.10;;;3.63;;
71975;SDS011;68326;52.124;5.424;2023-04-16T10:04:54;8.57;;;4.17;;
71975;SDS011;68326;52.124;5.424;2023-04-16T10:07:27;9.68;;;4.03;;
71975;SDS011;68326;52.124;5.424;2023-04-16T10:09:54;9.77;;;4.53;;
71975;SDS011;68326;52.124;5.424;2023-04-16T10:12:21;10.75;;;3.97;;
71975;SDS011;68326;52.124;5.424;2023-04-16T10:14:47;5.78;;;3.67;;
71975;SDS011;68326;52.124;5.424;2023-04-16T10:17:15;8.93;;;3.83;;
71975;SDS011;68326;52.124;5.424;2023-04-16T10:19:42;9.55;;;4.47;;
71975;SDS011;68326;52.124;5.424;2023-04-16T10:22:09;10.60;;;4.55;;
71975;SDS011;68326;52.124;5.424;2023-04-16T10:24:36;11.13;;;5.00;;
71975;SDS011;68326;52.124;5.424;2023-04-16T10:27:03;14.23;;;5.75;;
71975;SDS011;68326;52.124;5.424;2023-04-16T10:29:30;12.90;;;5.30;;
71975;SDS011;68326;52.124;5.424;2023-04-16T10:31:57;17.02;;;6.38;;
71975;SDS011;68326;52.124;5.424;2023-04-16T10:34:25;15.18;;;5.72;;
71975;SDS011;68326;52.124;5.424;2023-04-16T10:36:54;11.40;;;5.05;;
71975;SDS011;68326;52.124;5.424;2023-04-16T10:39:22;13.23;;;5.47;;
71975;SDS011;68326;52.124;5.424;2023-04-16T10:41:49;18.67;;;6.10;;
71975;SDS011;68326;52.124;5.424;2023-04-16T10:44:17;16.65;;;5.70;;
71975;SDS011;68326;52.124;5.424;2023-04-16T10:46:47;11.88;;;5.40;;
71975;SDS011;68326;52.124;5.424;2023-04-16T10:49:23;14.77;;;5.90;;
71975;SDS011;68326;52.124;5.424;2023-04-16T10:51:54;14.45;;;5.80;;
71975;SDS011;68326;52.124;5.424;2023-04-16T10:54:23;14.77;;;5.47;;
71975;SDS011;68326;52.124;5.424;2023-04-16T10:56:57;13.93;;;5.95;;
71975;SDS011;68326;52.124;5.424;2023-04-16T10:59:30;11.32;;;5.25;;
71975;SDS011;68326;52.124;5.424;2023-04-16T11:01:58;11.77;;;4.88;;
71975;SDS011;68326;52.124;5.424;2023-04-16T11:04:28;8.57;;;4.78;;
71975;SDS011;68326;52.124;5.424;2023-04-16T11:07:03;15.63;;;5.17;;
71975;SDS011;68326;52.124;5.424;2023-04-16T11:09:45;10.35;;;4.50;;
71975;SDS011;68326;52.124;5.424;2023-04-16T11:12:16;10.52;;;4.53;;
71975;SDS011;68326;52.124;5.424;2023-04-16T11:14:50;13.55;;;5.18;;
71975;SDS011;68326;52.124;5.424;2023-04-16T11:17:19;9.15;;;4.45;;
71975;SDS011;68326;52.124;5.424;2023-04-16T11:19:46;12.67;;;5.03;;
71975;SDS011;68326;52.124;5.424;2023-04-16T11:22:14;15.38;;;5.93;;
71975;SDS011;68326;52.124;5.424;2023-04-16T11:24:43;12.40;;;5.25;;
71975;SDS011;68326;52.124;5.424;2023-04-16T11:27:11;9.95;;;5.28;;
71975;SDS011;68326;52.124;5.424;2023-04-16T11:29:41;11.30;;;5.45;;
71975;SDS011;68326;52.124;5.424;2023-04-16T11:32:10;11.13;;;5.47;;
71975;SDS011;68326;52.124;5.424;2023-04-16T11:34:45;9.82;;;5.47;;
71975;SDS011;68326;52.124;5.424;2023-04-16T11:37:12;13.63;;;5.90;;
71975;SDS011;68326;52.124;5.424;2023-04-16T11:39:51;11.77;;;6.05;;
71975;SDS011;68326;52.124;5.424;2023-04-16T11:42:21;10.27;;;5.95;;
71975;SDS011;68326;52.124;5.424;2023-04-16T11:44:51;16.00;;;5.83;;
71975;SDS011;68326;52.124;5.424;2023-04-16T11:47:19;12.07;;;5.40;;
71975;SDS011;68326;52.124;5.424;2023-04-16T11:49:46;10.93;;;6.10;;
71975;SDS011;68326;52.124;5.424;2023-04-16T11:52:13;12.55;;;6.43;;
71975;SDS011;68326;52.124;5.424;2023-04-16T11:54:50;13.65;;;6.50;;
71975;SDS011;68326;52.124;5.424;2023-04-16T11:57:22;14.53;;;6.27;;
71975;SDS011;68326;52.124;5.424;2023-04-16T11:59:50;13.88;;;6.20;;
71975;SDS011;68326;52.124;5.424;2023-04-16T12:02:38;12.63;;;6.20;;
71975;SDS011;68326;52.124;5.424;2023-04-16T12:05:26;14.00;;;5.82;;
71975;SDS011;68326;52.124;5.424;2023-04-16T12:08:04;13.40;;;5.93;;
71975;SDS011;68326;52.124;5.424;2023-04-16T12:10:33;17.67;;;6.77;;
71975;SDS011;68326;52.124;5.424;2023-04-16T12:13:14;12.82;;;6.82;;
71975;SDS011;68326;52.124;5.424;2023-04-16T12:15:42;14.40;;;7.10;;
71975;SDS011;68326;52.124;5.424;2023-04-16T12:18:13;12.52;;;6.38;;
71975;SDS011;68326;52.124;5.424;2023-04-16T12:20:42;14.23;;;6.40;;
71975;SDS011;68326;52.124;5.424;2023-04-16T12:23:09;10.53;;;5.73;;
71975;SDS011;68326;52.124;5.424;2023-04-16T12:25:47;16.15;;;6.15;;
71975;SDS011;68326;52.124;5.424;2023-04-16T12:28:25;15.07;;;5.78;;
71975;SDS011;68326;52.124;5.424;2023-04-16T12:30:55;13.27;;;5.82;;
71975;SDS011;68326;52.124;5.424;2023-04-16T12:33:22;15.18;;;6.18;;
71975;SDS011;68326;52.124;5.424;2023-04-16T12:35:49;13.47;;;5.80;;
71975;SDS011;68326;52.124;5.424;2023-04-16T12:38:16;9.70;;;4.70;;
71975;SDS011;68326;52.124;5.424;2023-04-16T12:40:42;12.35;;;6.00;;
71975;SDS011;68326;52.124;5.424;2023-04-16T12:43:09;11.40;;;4.70;;
71975;SDS011;68326;52.124;5.424;2023-04-16T12:45:35;11.82;;;5.00;;
71975;SDS011;68326;52.124;5.424;2023-04-16T12:48:03;12.17;;;4.93;;
71975;SDS011;68326;52.124;5.424;2023-04-16T12:50:30;9.95;;;4.50;;
71975;SDS011;68326;52.124;5.424;2023-04-16T12:52:56;16.30;;;5.07;;
71975;SDS011;68326;52.124;5.424;2023-04-16T12:55:24;13.40;;;5.22;;
71975;SDS011;68326;52.124;5.424;2023-04-16T12:57:50;12.77;;;5.60;;
71975;SDS011;68326;52.124;5.424;2023-04-16T13:00:20;13.50;;;5.07;;
71975;SDS011;68326;52.124;5.424;2023-04-16T13:02:47;10.68;;;5.60;;
71975;SDS011;68326;52.124;5.424;2023-04-16T13:05:14;10.70;;;5.40;;
71975;SDS011;68326;52.124;5.424;2023-04-16T13:07:41;13.57;;;5.72;;
71975;SDS011;68326;52.124;5.424;2023-04-16T13:10:08;12.85;;;5.85;;
71975;SDS011;68326;52.124;5.424;2023-04-16T13:12:35;15.23;;;5.47;;
71975;SDS011;68326;52.124;5.424;2023-04-16T13:15:02;15.85;;;5.95;;
71975;SDS011;68326;52.124;5.424;2023-04-16T13:17:28;14.75;;;6.50;;
71975;SDS011;68326;52.124;5.424;2023-04-16T13:19:55;14.90;;;6.22;;
71975;SDS011;68326;52.124;5.424;2023-04-16T13:22:21;16.60;;;6.15;;
71975;SDS011;68326;52.124;5.424;2023-04-16T13:24:47;16.93;;;6.87;;
71975;SDS011;68326;52.124;5.424;2023-04-16T13:27:14;19.08;;;6.88;;
71975;SDS011;68326;52.124;5.424;2023-04-16T13:29:41;17.38;;;7.00;;
71975;SDS011;68326;52.124;5.424;2023-04-16T13:32:08;23.52;;;7.07;;
71975;SDS011;68326;52.124;5.424;2023-04-16T13:34:34;13.65;;;6.15;;
71975;SDS011;68326;52.124;5.424;2023-04-16T13:37:01;19.60;;;6.70;;
71975;SDS011;68326;52.124;5.424;2023-04-16T13:39:27;20.77;;;7.05;;
71975;SDS011;68326;52.124;5.424;2023-04-16T13:41:54;17.40;;;6.90;;
71975;SDS011;68326;52.124;5.424;2023-04-16T13:44:20;16.75;;;6.65;;
71975;SDS011;68326;52.124;5.424;2023-04-16T13:46:47;20.77;;;6.60;;
71975;SDS011;68326;52.124;5.424;2023-04-16T13:49:13;15.40;;;6.20;;
71975;SDS011;68326;52.124;5.424;2023-04-16T13:51:42;14.73;;;6.75;;
71975;SDS011;68326;52.124;5.424;2023-04-16T13:54:12;12.55;;;6.05;;
71975;SDS011;68326;52.124;5.424;2023-04-16T13:56:38;15.07;;;5.90;;
71975;SDS011;68326;52.124;5.424;2023-04-16T13:59:05;15.52;;;6.00;;
71975;SDS011;68326;52.124;5.424;2023-04-16T14:01:33;14.77;;;5.67;;
71975;SDS011;68326;52.124;5.424;2023-04-16T14:04:00;13.43;;;5.90;;
71975;SDS011;68326;52.124;5.424;2023-04-16T14:06:32;12.75;;;5.85;;
71975;SDS011;68326;52.124;5.424;2023-04-16T14:08:59;9.88;;;5.43;;
71975;SDS011;68326;52.124;5.424;2023-04-16T14:11:26;12.80;;;5.30;;
71975;SDS011;68326;52.124;5.424;2023-04-16T14:13:52;12.07;;;5.13;;
71975;SDS011;68326;52.124;5.424;2023-04-16T14:16:19;12.05;;;4.95;;
71975;SDS011;68326;52.124;5.424;2023-04-16T14:18:46;10.43;;;5.03;;
71975;SDS011;68326;52.124;5.424;2023-04-16T14:21:12;14.80;;;5.80;;
71975;SDS011;68326;52.124;5.424;2023-04-16T14:23:39;14.10;;;5.20;;
71975;SDS011;68326;52.124;5.424;2023-04-16T14:26:05;15.87;;;5.80;;
71975;SDS011;68326;52.124;5.424;2023-04-16T14:28:31;13.85;;;5.68;;
71975;SDS011;68326;52.124;5.424;2023-04-16T14:30:58;12.23;;;4.82;;
71975;SDS011;68326;52.124;5.424;2023-04-16T14:33:24;12.98;;;5.13;;
71975;SDS011;68326;52.124;5.424;2023-04-16T14:35:51;12.38;;;5.70;;
71975;SDS011;68326;52.124;5.424;2023-04-16T14:38:17;11.27;;;4.70;;
71975;SDS011;68326;52.124;5.424;2023-04-16T14:40:44;12.15;;;4.82;;
71975;SDS011;68326;52.124;5.424;2023-04-16T14:43:11;14.45;;;5.38;;